Time;durP1;ratioP1;P1;durP2;ratioP2;P2;SDS_P1;SDS_P2;PMS_P1;PMS_P2;Temp;Humidity;BMP_temperature;BMP_pressure;BME280_temperature;BME280_humidity;BME280_pressure;Samples;Min_cycle;Max_cycle;Signal;HPM_P1;HPM_P2
2022/11/20 00:02:20;;;;;;;;;;;3.80;70.40;;;;;;5057416;28;19942;-81
2022/11/20 00:04:46;;;;;;;;;;;3.80;70.40;;;;;;5066854;28;19924;-82
2022/11/20 00:07:11;;;;;;;;;;;3.80;70.40;;;;;;5061554;28;19932;-83
2022/11/20 00:09:37;;;;;;;;;;;3.80;70.40;;;;;;5059416;28;20036;-82
2022/11/20 00:12:03;;;;;;;;;;;3.80;70.40;;;;;;5058785;28;19924;-83
2022/11/20 00:14:28;;;;;;;;;;;3.70;70.40;;;;;;5061384;28;20344;-82
2022/11/20 00:16:54;;;;;;;;;;;3.70;70.40;;;;;;5078105;28;19912;-82
2022/11/20 00:19:19;;;;;;;;;;;3.70;70.40;;;;;;5067550;28;19916;-83
2022/11/20 00:21:45;;;;;;;;;;;3.70;70.40;;;;;;5068025;28;20014;-82
2022/11/20 00:24:11;;;;;;;;;;;3.70;70.40;;;;;;5057215;28;20337;-82
2022/11/20 00:26:36;;;;;;;;;;;3.70;70.40;;;;;;5039060;28;19917;-82
2022/11/20 00:29:02;;;;;;;;;;;3.60;70.30;;;;;;5076624;28;19947;-83
2022/11/20 00:31:29;;;;;;;;;;;3.60;70.40;;;;;;5088790;28;20356;-81
2022/11/20 00:33:54;;;;;;;;;;;3.60;70.30;;;;;;5055453;28;20902;-83
2022/11/20 00:36:21;;;;;;;;;;;3.60;70.30;;;;;;5057270;28;19920;-82
2022/11/20 00:38:50;;;;;;;;;;;3.60;70.30;;;;;;5069462;28;19912;-82
2022/11/20 00:41:16;;;;;;;;;;;3.60;70.40;;;;;;5076229;28;19912;-83
2022/11/20 00:43:42;;;;;;;;;;;3.60;70.40;;;;;;5068761;28;19920;-83
2022/11/20 00:46:09;;;;;;;;;;;3.50;70.30;;;;;;5054949;28;19931;-82
2022/11/20 00:48:35;;;;;;;;;;;3.60;70.40;;;;;;5074387;28;19913;-82
2022/11/20 00:51:01;;;;;;;;;;;3.50;70.30;;;;;;5070318;28;19938;-82
2022/11/20 00:53:27;;;;;;;;;;;3.50;70.30;;;;;;5081499;28;19917;-81
2022/11/20 00:55:56;;;;;;;;;;;3.50;70.30;;;;;;5067805;28;19939;-82
2022/11/20 00:58:22;;;;;;;;;;;3.50;70.30;;;;;;5059296;28;19917;-83
2022/11/20 01:00:49;;;;;;;;;;;3.40;70.30;;;;;;5075323;28;20322;-83
2022/11/20 01:03:16;;;;;;;;;;;3.40;70.30;;;;;;5061235;28;20011;-82
2022/11/20 01:05:41;;;;;;;;;;;3.40;70.30;;;;;;5076508;28;19929;-82
2022/11/20 01:08:07;;;;;;;;;;;3.40;70.30;;;;;;5061211;28;20300;-81
2022/11/20 01:10:32;;;;;;;;;;;3.40;70.30;;;;;;5066214;28;19942;-82
2022/11/20 01:15:42;;;;;;;;;;;3.40;70.30;;;;;;5075313;28;19927;-82
2022/11/20 01:18:08;;;;;;;;;;;3.30;70.20;;;;;;5092780;28;19916;-81
2022/11/20 01:20:35;;;;;;;;;;;3.30;70.90;;;;;;5062222;28;20284;-81
2022/11/20 01:23:01;;;;;;;;;;;3.30;70.30;;;;;;5079678;28;19962;-82
2022/11/20 01:25:26;;;;;;;;;;;3.30;70.20;;;;;;5059125;28;19964;-81
2022/11/20 01:27:52;;;;;;;;;;;3.30;70.30;;;;;;5092734;28;19974;-81
2022/11/20 01:30:18;;;;;;;;;;;3.30;70.30;;;;;;5050049;28;19916;-81
2022/11/20 01:32:43;;;;;;;;;;;3.30;70.30;;;;;;5078302;28;19965;-81
2022/11/20 01:35:10;;;;;;;;;;;3.20;70.20;;;;;;5090122;28;19922;-83
2022/11/20 01:37:35;;;;;;;;;;;3.20;70.20;;;;;;5068194;28;19999;-81
2022/11/20 01:40:01;;;;;;;;;;;3.20;70.20;;;;;;5065468;28;20034;-81
2022/11/20 01:45:30;;;;;;;;;;;3.20;70.30;;;;;;5069293;28;19955;-82
2022/11/20 01:47:55;;;;;;;;;;;3.20;70.30;;;;;;5087423;28;19917;-81
2022/11/20 01:50:26;;;;;;;;;;;3.10;70.20;;;;;;5054411;28;19946;-81
2022/11/20 01:52:57;;;;;;;;;;;3.20;70.30;;;;;;5070157;28;19912;-82
2022/11/20 01:55:24;;;;;;;;;;;3.10;70.30;;;;;;5061765;28;19967;-82
2022/11/20 01:57:50;;;;;;;;;;;3.10;70.30;;;;;;5069339;28;19935;-82
2022/11/20 02:00:18;;;;;;;;;;;3.10;70.30;;;;;;5056030;28;20361;-81
2022/11/20 02:02:53;;;;;;;;;;;3.10;70.20;;;;;;5077549;28;19938;-83
2022/11/20 02:05:22;;;;;;;;;;;3.10;70.30;;;;;;5065063;28;20304;-81
2022/11/20 02:07:48;;;;;;;;;;;3.00;70.20;;;;;;5079752;28;19912;-82
2022/11/20 02:10:14;;;;;;;;;;;3.00;70.20;;;;;;5071157;28;20007;-82
2022/11/20 02:15:24;;;;;;;;;;;3.00;70.20;;;;;;5075589;28;19923;-82
2022/11/20 02:17:49;;;;;;;;;;;3.00;70.20;;;;;;5087792;28;19920;-81
2022/11/20 02:20:15;;;;;;;;;;;3.00;70.20;;;;;;5054436;28;20044;-82
2022/11/20 02:22:48;;;;;;;;;;;3.00;70.20;;;;;;5089981;28;20372;-83
2022/11/20 02:25:14;;;;;;;;;;;2.90;70.20;;;;;;5076269;28;20347;-81
2022/11/20 02:27:40;;;;;;;;;;;3.00;70.20;;;;;;5082963;28;19919;-81
2022/11/20 02:30:10;;;;;;;;;;;2.90;70.20;;;;;;5076206;28;19920;-81
2022/11/20 02:32:36;;;;;;;;;;;2.90;70.20;;;;;;5056752;28;19942;-81
2022/11/20 02:35:08;;;;;;;;;;;2.90;70.20;;;;;;5068163;28;20352;-81
2022/11/20 02:37:35;;;;;;;;;;;2.90;70.20;;;;;;5069250;28;19923;-81
2022/11/20 02:40:01;;;;;;;;;;;2.90;70.20;;;;;;5069786;28;19916;-80
2022/11/20 02:42:26;;;;;;;;;;;2.90;70.20;;;;;;5068656;28;19937;-81
2022/11/20 02:44:52;;;;;;;;;;;2.90;70.20;;;;;;5065690;28;19920;-81
2022/11/20 02:47:17;;;;;;;;;;;2.80;70.20;;;;;;5059186;28;19932;-81
2022/11/20 02:49:43;;;;;;;;;;;2.80;70.20;;;;;;5062555;28;19970;-81
2022/11/20 02:52:09;;;;;;;;;;;2.80;70.20;;;;;;5070713;28;19927;-81
2022/11/20 02:54:34;;;;;;;;;;;2.80;70.20;;;;;;5059233;28;19920;-82
2022/11/20 02:57:00;;;;;;;;;;;2.80;70.20;;;;;;5059793;28;19995;-82
2022/11/20 02:59:25;;;;;;;;;;;2.80;70.20;;;;;;5071377;28;19956;-81
2022/11/20 03:01:51;;;;;;;;;;;2.70;70.20;;;;;;5073310;28;20345;-80
2022/11/20 03:04:17;;;;;;;;;;;2.70;70.10;;;;;;5074388;28;19916;-81
2022/11/20 03:06:42;;;;;;;;;;;2.70;70.10;;;;;;5052544;28;19920;-81
2022/11/20 03:09:08;;;;;;;;;;;2.70;70.10;;;;;;5070160;28;19920;-81
2022/11/20 03:11:33;;;;;;;;;;;2.70;70.10;;;;;;5068861;28;20050;-82
2022/11/20 03:14:01;;;;;;;;;;;2.70;70.20;;;;;;5069824;28;20000;-82
2022/11/20 03:16:27;;;;;;;;;;;2.70;70.20;;;;;;5069789;28;19951;-80
2022/11/20 03:18:53;;;;;;;;;;;2.70;70.20;;;;;;5084568;28;19951;-81
2022/11/20 03:21:19;;;;;;;;;;;2.70;70.20;;;;;;5065790;28;20381;-81
2022/11/20 03:23:44;;;;;;;;;;;2.60;70.10;;;;;;5080327;28;19935;-83
2022/11/20 03:26:15;;;;;;;;;;;2.60;70.10;;;;;;5077089;28;20383;-80
2022/11/20 03:28:42;;;;;;;;;;;2.60;70.20;;;;;;5068724;28;19941;-82
2022/11/20 03:31:09;;;;;;;;;;;2.60;70.10;;;;;;5075686;28;19916;-82
2022/11/20 03:33:34;;;;;;;;;;;2.60;70.10;;;;;;5070580;28;19916;-81
2022/11/20 03:36:01;;;;;;;;;;;2.60;70.10;;;;;;5079769;28;19922;-80
2022/11/20 03:38:28;;;;;;;;;;;2.60;70.20;;;;;;5068461;28;19916;-80
2022/11/20 03:40:57;;;;;;;;;;;2.60;70.20;;;;;;5097353;28;19923;-80
2022/11/20 03:43:23;;;;;;;;;;;2.60;70.20;;;;;;5076845;28;20261;-80
2022/11/20 03:45:48;;;;;;;;;;;2.50;70.10;;;;;;5067433;28;19950;-83
2022/11/20 03:48:14;;;;;;;;;;;2.50;70.10;;;;;;5067714;28;19920;-80
2022/11/20 03:50:39;;;;;;;;;;;2.50;70.10;;;;;;5077051;28;20380;-81
2022/11/20 03:53:05;;;;;;;;;;;2.50;70.10;;;;;;5073861;28;19923;-82
2022/11/20 03:55:31;;;;;;;;;;;2.50;70.10;;;;;;5057195;28;19920;-82
2022/11/20 03:57:56;;;;;;;;;;;2.50;70.10;;;;;;5061293;28;20017;-81
2022/11/20 04:00:22;;;;;;;;;;;2.50;70.10;;;;;;5088982;28;19923;-81
2022/11/20 04:02:47;;;;;;;;;;;2.50;70.20;;;;;;5069114;28;20536;-82
2022/11/20 04:05:13;;;;;;;;;;;2.40;70.10;;;;;;5077553;28;19928;-81
2022/11/20 04:07:38;;;;;;;;;;;2.40;70.10;;;;;;5088793;28;20616;-80
2022/11/20 04:10:04;;;;;;;;;;;2.40;70.10;;;;;;5062984;28;19926;-80
2022/11/20 04:12:33;;;;;;;;;;;2.40;70.10;;;;;;5069873;28;19916;-81
2022/11/20 04:14:59;;;;;;;;;;;2.40;70.10;;;;;;5064537;28;19913;-80
2022/11/20 04:17:24;;;;;;;;;;;2.40;70.10;;;;;;5087540;28;19927;-80
2022/11/20 04:19:50;;;;;;;;;;;2.40;70.10;;;;;;5089471;28;20397;-80
2022/11/20 04:22:16;;;;;;;;;;;2.30;70.10;;;;;;5084538;28;19916;-80
2022/11/20 04:24:41;;;;;;;;;;;2.40;70.10;;;;;;5088499;28;19928;-81
2022/11/20 04:27:07;;;;;;;;;;;2.30;70.10;;;;;;5065774;28;19917;-81
2022/11/20 04:29:32;;;;;;;;;;;2.30;70.10;;;;;;5070114;28;19916;-81
2022/11/20 04:31:58;;;;;;;;;;;2.30;70.10;;;;;;5084735;28;19912;-82
2022/11/20 04:34:24;;;;;;;;;;;2.30;70.10;;;;;;5064069;28;19977;-82
2022/11/20 04:36:49;;;;;;;;;;;2.30;70.10;;;;;;5078011;28;19951;-83
2022/11/20 04:39:15;;;;;;;;;;;2.30;70.10;;;;;;5087121;28;19948;-82
2022/11/20 04:41:40;;;;;;;;;;;2.30;70.10;;;;;;5070882;28;19942;-81
2022/11/20 04:44:06;;;;;;;;;;;2.30;70.10;;;;;;5089323;28;20355;-82
2022/11/20 04:46:36;;;;;;;;;;;2.30;70.10;;;;;;5068937;28;19927;-81
2022/11/20 04:49:02;;;;;;;;;;;2.30;70.10;;;;;;5074056;28;19994;-81
2022/11/20 04:51:28;;;;;;;;;;;2.30;70.10;;;;;;5089208;28;19923;-80
2022/11/20 04:53:54;;;;;;;;;;;2.20;70.10;;;;;;5069335;28;20421;-80
2022/11/20 04:56:19;;;;;;;;;;;2.20;70.10;;;;;;5061385;28;19916;-80
2022/11/20 04:58:45;;;;;;;;;;;2.20;70.00;;;;;;5068539;28;19971;-80
2022/11/20 05:01:23;;;;;;;;;;;2.20;70.10;;;;;;5069112;28;21768;-83
2022/11/20 05:03:49;;;;;;;;;;;2.20;70.10;;;;;;5053358;28;20301;-81
2022/11/20 05:06:16;;;;;;;;;;;2.20;70.10;;;;;;5085280;28;19942;-82
2022/11/20 05:08:42;;;;;;;;;;;2.20;70.10;;;;;;5069543;28;19916;-80
2022/11/20 05:11:08;;;;;;;;;;;2.20;70.10;;;;;;5049325;28;19965;-80
2022/11/20 05:13:34;;;;;;;;;;;2.10;70.10;;;;;;5067383;28;19920;-80
2022/11/20 05:16:04;;;;;;;;;;;2.10;70.00;;;;;;5051893;28;19923;-81
2022/11/20 05:18:30;;;;;;;;;;;2.10;70.00;;;;;;5087250;28;19912;-80
2022/11/20 05:20:56;;;;;;;;;;;2.10;70.00;;;;;;5065214;28;19923;-81
2022/11/20 05:23:22;;;;;;;;;;;2.10;70.00;;;;;;5079860;28;19920;-82
2022/11/20 05:25:47;;;;;;;;;;;2.10;70.00;;;;;;5093042;28;19912;-83
2022/11/20 05:28:13;;;;;;;;;;;2.10;70.10;;;;;;5076820;28;20277;-80
2022/11/20 05:30:39;;;;;;;;;;;2.00;70.00;;;;;;5077527;28;19966;-81
2022/11/20 05:33:05;;;;;;;;;;;2.10;70.00;;;;;;5083328;28;19917;-81
2022/11/20 05:35:30;;;;;;;;;;;2.10;70.10;;;;;;5058211;28;19999;-81
2022/11/20 05:37:56;;;;;;;;;;;2.00;70.00;;;;;;5078034;28;20369;-82
2022/11/20 05:40:21;;;;;;;;;;;2.00;70.00;;;;;;5078647;28;19931;-80
2022/11/20 05:42:47;;;;;;;;;;;2.00;70.10;;;;;;5074460;28;20292;-80
2022/11/20 05:45:12;;;;;;;;;;;2.00;70.00;;;;;;5078691;28;19968;-80
2022/11/20 05:47:38;;;;;;;;;;;2.00;70.00;;;;;;5074869;28;20365;-80
2022/11/20 05:50:04;;;;;;;;;;;2.00;70.00;;;;;;5094976;28;19920;-80
2022/11/20 05:52:30;;;;;;;;;;;2.00;70.00;;;;;;5080069;28;19955;-81
2022/11/20 05:54:56;;;;;;;;;;;1.90;70.00;;;;;;5084767;28;19919;-81
2022/11/20 05:57:21;;;;;;;;;;;1.90;70.00;;;;;;5075333;28;19916;-82
2022/11/20 05:59:47;;;;;;;;;;;1.90;70.00;;;;;;5066191;28;20301;-83
2022/11/20 06:02:12;;;;;;;;;;;1.90;70.00;;;;;;5092507;28;19920;-82
2022/11/20 06:04:38;;;;;;;;;;;1.90;70.00;;;;;;5088782;28;20011;-81
2022/11/20 06:07:07;;;;;;;;;;;1.90;70.00;;;;;;5071128;28;19924;-82
2022/11/20 06:09:33;;;;;;;;;;;1.90;70.00;;;;;;5070547;28;20361;-80
2022/11/20 06:11:58;;;;;;;;;;;1.90;70.00;;;;;;5067829;28;19925;-81
2022/11/20 06:14:24;;;;;;;;;;;1.90;70.00;;;;;;5054957;28;19917;-82
2022/11/20 06:16:49;;;;;;;;;;;1.90;70.00;;;;;;5069368;28;20034;-81
2022/11/20 06:19:15;;;;;;;;;;;1.80;70.00;;;;;;5076376;28;19916;-82
2022/11/20 06:21:41;;;;;;;;;;;1.80;70.00;;;;;;5093283;28;19918;-81
2022/11/20 06:24:08;;;;;;;;;;;1.80;70.00;;;;;;5090590;28;20522;-81
2022/11/20 06:26:33;;;;;;;;;;;1.80;70.00;;;;;;5066622;28;19922;-81
2022/11/20 06:28:59;;;;;;;;;;;1.80;70.00;;;;;;5071903;28;19938;-81
2022/11/20 06:31:25;;;;;;;;;;;1.80;70.00;;;;;;5067189;28;19966;-80
2022/11/20 06:33:51;;;;;;;;;;;1.80;70.00;;;;;;5070763;28;19920;-80
2022/11/20 06:36:18;;;;;;;;;;;1.80;70.00;;;;;;5062420;28;20007;-81
2022/11/20 06:38:44;;;;;;;;;;;1.80;70.00;;;;;;5060626;28;19917;-83
2022/11/20 06:41:17;;;;;;;;;;;1.80;70.00;;;;;;5084164;28;19923;-82
2022/11/20 06:43:42;;;;;;;;;;;1.80;70.00;;;;;;5084965;28;19925;-82
2022/11/20 06:46:09;;;;;;;;;;;1.80;70.00;;;;;;5085360;28;19927;-82
2022/11/20 06:48:35;;;;;;;;;;;1.70;70.00;;;;;;5055663;28;19959;-81
2022/11/20 06:51:02;;;;;;;;;;;1.70;70.00;;;;;;5078559;28;19985;-80
2022/11/20 06:53:28;;;;;;;;;;;1.70;70.00;;;;;;5059995;28;19959;-81
2022/11/20 06:55:55;;;;;;;;;;;1.70;70.00;;;;;;5068179;28;19971;-81
2022/11/20 06:58:21;;;;;;;;;;;1.70;70.00;;;;;;5070333;28;19912;-80
2022/11/20 07:00:46;;;;;;;;;;;1.70;70.00;;;;;;5072109;28;19916;-82
2022/11/20 07:03:12;;;;;;;;;;;1.60;69.90;;;;;;5047165;28;19931;-82
2022/11/20 07:05:38;;;;;;;;;;;1.60;69.90;;;;;;5066072;28;19959;-81
2022/11/20 07:08:04;;;;;;;;;;;1.60;69.90;;;;;;5055404;28;19927;-81
2022/11/20 07:10:30;;;;;;;;;;;1.60;70.00;;;;;;5083629;28;20273;-81
2022/11/20 07:12:56;;;;;;;;;;;1.70;70.00;;;;;;5062542;28;19920;-81
2022/11/20 07:15:22;;;;;;;;;;;1.60;70.00;;;;;;5054633;28;19916;-81
2022/11/20 07:17:48;;;;;;;;;;;1.60;70.00;;;;;;5086478;28;20291;-81
2022/11/20 07:20:14;;;;;;;;;;;1.60;70.00;;;;;;5052885;28;19919;-82
2022/11/20 07:22:40;;;;;;;;;;;1.60;70.00;;;;;;5050449;28;20541;-81
2022/11/20 07:25:06;;;;;;;;;;;1.60;70.00;;;;;;5080332;28;19920;-82
2022/11/20 07:27:31;;;;;;;;;;;1.60;70.00;;;;;;5070280;28;19917;-81
2022/11/20 07:29:57;;;;;;;;;;;1.50;69.90;;;;;;5053059;28;19970;-82
2022/11/20 07:32:23;;;;;;;;;;;1.60;70.00;;;;;;5056466;28;19921;-83
2022/11/20 07:34:48;;;;;;;;;;;1.50;69.90;;;;;;5057432;28;20314;-81
2022/11/20 07:37:14;;;;;;;;;;;1.50;70.00;;;;;;5073097;28;20274;-82
2022/11/20 07:39:40;;;;;;;;;;;1.50;70.00;;;;;;5064605;28;19917;-81
2022/11/20 07:42:06;;;;;;;;;;;1.50;70.00;;;;;;5063550;28;19921;-81
2022/11/20 07:44:36;;;;;;;;;;;1.50;70.00;;;;;;5067989;28;20004;-81
2022/11/20 07:47:02;;;;;;;;;;;1.50;70.00;;;;;;5057713;28;20424;-81
2022/11/20 07:49:27;;;;;;;;;;;1.50;70.00;;;;;;5070636;28;20284;-82
2022/11/20 07:51:53;;;;;;;;;;;1.50;70.00;;;;;;5065512;28;19967;-81
2022/11/20 07:54:19;;;;;;;;;;;1.50;70.00;;;;;;5067830;28;19912;-81
2022/11/20 07:56:45;;;;;;;;;;;1.50;70.00;;;;;;5070784;28;19916;-82
2022/11/20 07:59:11;;;;;;;;;;;1.50;70.00;;;;;;5070223;28;19970;-81
2022/11/20 08:01:37;;;;;;;;;;;1.50;70.00;;;;;;5071933;28;19927;-80
2022/11/20 08:04:03;;;;;;;;;;;1.50;70.00;;;;;;5054234;28;19921;-81
2022/11/20 08:06:29;;;;;;;;;;;1.50;70.00;;;;;;5073708;28;19923;-82
2022/11/20 08:08:54;;;;;;;;;;;1.50;70.10;;;;;;5069259;28;20328;-80
2022/11/20 08:14:13;;;;;;;;;;;1.50;70.10;;;;;;5077810;28;19927;-80
2022/11/20 08:16:43;;;;;;;;;;;1.50;70.10;;;;;;5057500;28;19917;-80
2022/11/20 08:19:09;;;;;;;;;;;1.50;70.10;;;;;;5070685;28;19920;-79
2022/11/20 08:21:35;;;;;;;;;;;1.40;70.10;;;;;;5073800;28;20265;-79
2022/11/20 08:24:00;;;;;;;;;;;1.50;70.20;;;;;;5075963;28;19928;-80
2022/11/20 08:26:26;;;;;;;;;;;1.50;70.20;;;;;;5089875;28;19916;-80
2022/11/20 08:28:55;;;;;;;;;;;1.50;70.20;;;;;;5063500;28;19920;-83
2022/11/20 08:31:21;;;;;;;;;;;1.50;70.20;;;;;;5084626;28;19948;-80
2022/11/20 08:33:47;;;;;;;;;;;1.50;70.20;;;;;;5079243;28;19960;-80
2022/11/20 08:36:12;;;;;;;;;;;1.50;70.20;;;;;;5075176;28;20007;-80
2022/11/20 08:38:38;;;;;;;;;;;1.50;70.20;;;;;;5077342;28;19916;-80
2022/11/20 08:44:03;;;;;;;;;;;1.50;70.30;;;;;;5075272;28;20014;-80
2022/11/20 08:46:33;;;;;;;;;;;1.50;70.30;;;;;;5092269;28;19922;-80
2022/11/20 08:48:59;;;;;;;;;;;1.50;70.40;;;;;;5093527;28;19912;-81
2022/11/20 08:51:25;;;;;;;;;;;1.60;70.40;;;;;;5066384;28;19927;-80
2022/11/20 08:53:51;;;;;;;;;;;1.50;70.40;;;;;;5070581;28;19985;-81
2022/11/20 08:56:17;;;;;;;;;;;1.60;70.50;;;;;;5082048;28;19994;-83
2022/11/20 08:58:42;;;;;;;;;;;1.60;70.50;;;;;;5058112;28;19916;-80
2022/11/20 09:01:08;;;;;;;;;;;1.60;70.50;;;;;;5093108;28;19923;-80
2022/11/20 09:03:34;;;;;;;;;;;1.60;70.50;;;;;;5094504;28;20399;-80
2022/11/20 09:06:00;;;;;;;;;;;1.60;70.50;;;;;;5062884;28;19928;-82
2022/11/20 09:08:27;;;;;;;;;;;1.70;70.60;;;;;;5069504;28;19920;-81
2022/11/20 09:10:53;;;;;;;;;;;1.70;70.70;;;;;;5055410;28;20012;-81
2022/11/20 09:13:19;;;;;;;;;;;1.70;70.70;;;;;;5066795;28;19954;-81
2022/11/20 09:15:44;;;;;;;;;;;1.70;70.70;;;;;;5062279;28;20399;-81
2022/11/20 09:18:10;;;;;;;;;;;1.80;70.70;;;;;;5071584;28;19998;-80
2022/11/20 09:20:36;;;;;;;;;;;1.70;70.70;;;;;;5091121;28;19928;-81
2022/11/20 09:23:01;;;;;;;;;;;1.80;70.70;;;;;;5057452;28;19962;-81
2022/11/20 09:25:27;;;;;;;;;;;1.80;70.70;;;;;;5073427;28;19958;-82
2022/11/20 09:27:56;;;;;;;;;;;1.80;70.70;;;;;;5060076;28;19916;-83
2022/11/20 09:30:21;;;;;;;;;;;1.90;70.80;;;;;;5056473;28;19962;-85
2022/11/20 09:32:47;;;;;;;;;;;1.90;70.90;;;;;;5090667;28;20322;-82
2022/11/20 09:35:14;;;;;;;;;;;1.90;70.90;;;;;;5092732;28;19922;-81
2022/11/20 09:37:39;;;;;;;;;;;1.90;70.90;;;;;;5086046;28;19947;-80
2022/11/20 09:40:06;;;;;;;;;;;1.90;70.90;;;;;;5052422;28;19970;-79
2022/11/20 09:42:55;;;;;;;;;;;2.00;70.90;;;;;;5065893;28;19920;-80
2022/11/20 09:45:43;;;;;;;;;;;2.00;71.00;;;;;;5059103;28;19919;-81
2022/11/20 09:48:12;;;;;;;;;;;2.00;71.00;;;;;;5040288;28;19912;-80
2022/11/20 09:50:42;;;;;;;;;;;2.00;71.00;;;;;;5088623;28;20383;-83
2022/11/20 09:53:12;;;;;;;;;;;2.10;71.10;;;;;;5054267;28;19912;-82
2022/11/20 09:55:38;;;;;;;;;;;2.10;71.10;;;;;;5066293;28;20354;-82
2022/11/20 09:58:12;;;;;;;;;;;2.10;71.10;;;;;;5066902;28;19924;-80
2022/11/20 10:00:38;;;;;;;;;;;2.20;71.10;;;;;;5051482;28;19912;-80
2022/11/20 10:03:33;;;;;;;;;;;2.20;71.20;;;;;;5061049;28;19916;-80
2022/11/20 10:06:00;;;;;;;;;;;2.20;71.20;;;;;;5050835;28;19920;-83
2022/11/20 10:08:32;;;;;;;;;;;2.20;71.20;;;;;;5073898;28;20315;-82
2022/11/20 10:11:08;;;;;;;;;;;2.30;71.20;;;;;;5067382;28;19919;-81
2022/11/20 10:13:37;;;;;;;;;;;2.30;71.20;;;;;;5068664;28;19919;-80
2022/11/20 10:16:07;;;;;;;;;;;2.30;71.30;;;;;;5076987;28;20260;-80
2022/11/20 10:19:02;;;;;;;;;;;2.30;71.30;;;;;;5093524;28;20360;-80
2022/11/20 10:21:38;;;;;;;;;;;2.30;71.30;;;;;;4985169;28;19944;-80
2022/11/20 10:24:03;;;;;;;;;;;2.40;71.40;;;;;;5077308;28;19920;-80
2022/11/20 10:26:29;;;;;;;;;;;2.40;71.40;;;;;;5076918;28;19936;-79
2022/11/20 10:29:07;;;;;;;;;;;2.40;71.40;;;;;;5080018;28;19943;-81
2022/11/20 10:31:35;;;;;;;;;;;2.50;71.40;;;;;;5092465;28;19918;-81
2022/11/20 10:34:05;;;;;;;;;;;2.50;71.50;;;;;;5071499;28;19959;-82
2022/11/20 10:36:34;;;;;;;;;;;2.50;71.50;;;;;;5070307;28;19915;-79
2022/11/20 10:39:11;;;;;;;;;;;2.60;71.60;;;;;;5058576;28;19913;-80
2022/11/20 10:41:43;;;;;;;;;;;2.60;71.60;;;;;;5063873;28;20061;-80
2022/11/20 10:44:14;;;;;;;;;;;2.60;71.60;;;;;;5064935;28;19927;-83
2022/11/20 10:46:44;;;;;;;;;;;2.60;71.60;;;;;;5067726;28;19923;-81
2022/11/20 10:49:18;;;;;;;;;;;2.70;71.70;;;;;;5057310;28;19969;-80
2022/11/20 10:52:05;;;;;;;;;;;2.70;71.70;;;;;;5092137;28;19966;-80
2022/11/20 10:54:47;;;;;;;;;;;2.70;71.70;;;;;;5088953;28;20356;-80
2022/11/20 10:57:25;;;;;;;;;;;2.80;71.70;;;;;;5083980;28;19935;-81
2022/11/20 10:59:59;;;;;;;;;;;2.80;71.70;;;;;;5070559;28;19922;-80
2022/11/20 11:02:33;;;;;;;;;;;2.80;71.70;;;;;;5091739;28;19920;-81
2022/11/20 11:05:04;;;;;;;;;;;2.90;71.80;;;;;;5093680;28;20182;-79
2022/11/20 11:07:36;;;;;;;;;;;2.90;71.80;;;;;;5082074;28;19916;-80
2022/11/20 11:10:11;;;;;;;;;;;2.90;71.80;;;;;;5079356;28;19912;-80
2022/11/20 11:12:42;;;;;;;;;;;3.00;71.80;;;;;;5085614;28;19920;-80
2022/11/20 11:15:12;;;;;;;;;;;3.00;71.80;;;;;;5060165;28;20003;-80
2022/11/20 11:17:45;;;;;;;;;;;3.00;71.80;;;;;;5093587;28;19995;-80
2022/11/20 11:20:18;;;;;;;;;;;3.00;71.80;;;;;;5095172;28;20307;-83
2022/11/20 11:22:54;;;;;;;;;;;3.10;71.80;;;;;;5073767;28;19923;-80
2022/11/20 11:25:33;;;;;;;;;;;3.10;71.80;;;;;;5078887;28;20385;-80
2022/11/20 11:28:00;;;;;;;;;;;3.10;71.80;;;;;;5091042;28;20341;-81
2022/11/20 11:30:27;;;;;;;;;;;3.20;71.80;;;;;;5080202;28;20401;-81
2022/11/20 11:33:06;;;;;;;;;;;3.20;71.80;;;;;;5061823;28;19999;-80
2022/11/20 11:35:32;;;;;;;;;;;3.20;71.90;;;;;;5075284;28;19913;-80
2022/11/20 11:38:07;;;;;;;;;;;3.20;71.80;;;;;;5061839;28;19924;-80
2022/11/20 11:40:34;;;;;;;;;;;3.30;71.90;;;;;;5074776;28;19947;-79
2022/11/20 11:43:02;;;;;;;;;;;3.30;71.90;;;;;;5060307;28;19943;-81
2022/11/20 11:45:27;;;;;;;;;;;3.40;71.90;;;;;;5070915;28;19947;-79
2022/11/20 11:47:54;;;;;;;;;;;3.40;71.90;;;;;;5091206;28;20380;-81
2022/11/20 11:50:30;;;;;;;;;;;3.40;71.90;;;;;;5092612;28;19931;-81
2022/11/20 11:53:05;;;;;;;;;;;3.40;71.90;;;;;;5040974;28;20239;-81
2022/11/20 11:55:34;;;;;;;;;;;3.40;71.90;;;;;;5088065;28;19908;-80
2022/11/20 11:58:09;;;;;;;;;;;3.50;71.90;;;;;;5092378;28;19913;-81
2022/11/20 12:00:35;;;;;;;;;;;3.50;71.90;;;;;;5090892;28;19923;-80
2022/11/20 12:03:13;;;;;;;;;;;3.60;72.00;;;;;;5092790;28;19961;-80
2022/11/20 12:05:42;;;;;;;;;;;3.60;72.00;;;;;;5086080;28;20273;-81
2022/11/20 12:08:18;;;;;;;;;;;3.60;71.90;;;;;;5067288;28;20296;-81
2022/11/20 12:10:56;;;;;;;;;;;3.60;71.90;;;;;;5063597;28;19956;-80
2022/11/20 12:13:30;;;;;;;;;;;3.60;71.90;;;;;;5056017;28;19957;-81
2022/11/20 12:15:56;;;;;;;;;;;3.70;71.90;;;;;;5058839;28;19908;-79
2022/11/20 12:18:22;;;;;;;;;;;3.70;71.90;;;;;;5070616;28;19969;-79
2022/11/20 12:21:05;;;;;;;;;;;3.70;71.90;;;;;;5070662;28;19920;-80
2022/11/20 12:23:31;;;;;;;;;;;3.80;72.00;;;;;;5067489;28;19919;-80
2022/11/20 12:25:59;;;;;;;;;;;3.90;72.10;;;;;;5061320;28;20459;-81
2022/11/20 12:28:57;;;;;;;;;;;3.80;71.90;;;;;;5074780;28;19937;-80
2022/11/20 12:31:35;;;;;;;;;;;3.90;72.00;;;;;;5026328;28;19908;-79
2022/11/20 12:34:21;;;;;;;;;;;3.90;72.00;;;;;;5070217;28;20143;-82
2022/11/20 12:36:46;;;;;;;;;;;4.00;72.10;;;;;;5071093;28;19991;-80
2022/11/20 12:39:12;;;;;;;;;;;4.00;72.00;;;;;;5083008;28;20002;-80
2022/11/20 12:47:42;;;;;;;;;;;4.00;72.30;;;;;;5091872;28;19916;-82
2022/11/20 12:50:31;;;;;;;;;;;4.10;72.10;;;;;;5059110;28;19987;-82
2022/11/20 12:53:17;;;;;;;;;;;4.10;72.10;;;;;;5066260;28;19919;-81
2022/11/20 12:55:49;;;;;;;;;;;4.10;72.10;;;;;;5027521;28;19943;-80
2022/11/20 12:58:20;;;;;;;;;;;4.10;72.10;;;;;;5090800;28;19916;-79
2022/11/20 13:00:54;;;;;;;;;;;4.20;72.10;;;;;;5077830;28;19912;-80
2022/11/20 13:03:38;;;;;;;;;;;4.20;72.10;;;;;;5065726;28;20288;-82
2022/11/20 13:06:04;;;;;;;;;;;4.20;72.10;;;;;;5072380;28;20014;-82
2022/11/20 13:08:33;;;;;;;;;;;4.20;72.10;;;;;;5088647;28;20314;-82
2022/11/20 13:11:05;;;;;;;;;;;4.30;72.10;;;;;;5088551;28;19934;-82
2022/11/20 13:13:49;;;;;;;;;;;4.30;72.10;;;;;;5087843;28;19919;-82
2022/11/20 13:16:34;;;;;;;;;;;4.30;72.10;;;;;;5086130;28;19946;-81
2022/11/20 13:19:10;;;;;;;;;;;4.40;72.10;;;;;;5063301;28;20383;-82
2022/11/20 13:21:41;;;;;;;;;;;4.40;72.10;;;;;;5088346;28;19923;-81
2022/11/20 13:24:07;;;;;;;;;;;4.40;72.20;;;;;;5088395;28;19920;-82
2022/11/20 13:26:33;;;;;;;;;;;4.40;72.10;;;;;;5072089;28;19916;-81
2022/11/20 13:29:02;;;;;;;;;;;4.50;72.30;;;;;;5054997;28;19919;-81
2022/11/20 13:31:30;;;;;;;;;;;4.50;72.20;;;;;;5062904;28;20121;-80
2022/11/20 13:33:56;;;;;;;;;;;4.50;72.20;;;;;;5068440;28;19916;-81
2022/11/20 13:36:26;;;;;;;;;;;4.50;72.20;;;;;;5087718;28;19924;-81
2022/11/20 13:38:53;;;;;;;;;;;4.50;72.20;;;;;;5071518;28;20540;-81
2022/11/20 13:41:45;;;;;;;;;;;4.60;72.30;;;;;;5058122;28;20364;-80
2022/11/20 13:44:11;;;;;;;;;;;4.60;72.30;;;;;;5065121;28;20300;-81
2022/11/20 13:46:37;;;;;;;;;;;4.60;72.30;;;;;;5055347;28;19919;-81
2022/11/20 13:49:10;;;;;;;;;;;4.60;72.30;;;;;;5055062;28;20007;-80
2022/11/20 13:51:52;;;;;;;;;;;4.60;72.30;;;;;;5087997;28;20932;-81
2022/11/20 13:54:18;;;;;;;;;;;4.70;72.30;;;;;;5068190;28;19975;-80
2022/11/20 13:56:50;;;;;;;;;;;4.70;72.30;;;;;;5067354;28;19912;-80
2022/11/20 13:59:18;;;;;;;;;;;4.70;72.30;;;;;;5054062;28;20012;-83
2022/11/20 14:01:45;;;;;;;;;;;4.70;72.30;;;;;;5084389;28;20353;-81
2022/11/20 14:04:15;;;;;;;;;;;4.80;72.30;;;;;;5051287;28;19917;-82
2022/11/20 14:06:42;;;;;;;;;;;4.80;72.30;;;;;;5066626;28;20371;-80
2022/11/20 14:09:27;;;;;;;;;;;4.80;72.30;;;;;;5069861;28;20460;-81
2022/11/20 14:11:52;;;;;;;;;;;4.80;72.30;;;;;;5088788;28;20368;-80
2022/11/20 14:14:22;;;;;;;;;;;4.90;72.30;;;;;;5056494;28;19959;-81
2022/11/20 14:16:48;;;;;;;;;;;4.90;72.30;;;;;;5083072;28;19912;-82
2022/11/20 14:19:20;;;;;;;;;;;4.90;72.30;;;;;;5058036;28;19978;-82
2022/11/20 14:21:49;;;;;;;;;;;4.90;72.30;;;;;;5087922;28;19975;-80
2022/11/20 14:24:20;;;;;;;;;;;5.00;72.40;;;;;;5067705;28;19920;-80
2022/11/20 14:26:46;;;;;;;;;;;4.90;72.30;;;;;;5069183;28;19927;-83
2022/11/20 14:29:19;;;;;;;;;;;5.00;72.30;;;;;;5068961;28;19916;-80
2022/11/20 14:31:46;;;;;;;;;;;5.00;72.30;;;;;;5081874;28;20270;-82
2022/11/20 14:34:16;;;;;;;;;;;5.00;72.30;;;;;;5054576;28;20419;-81
2022/11/20 14:36:43;;;;;;;;;;;5.00;72.30;;;;;;5087576;28;19998;-83
2022/11/20 14:39:10;;;;;;;;;;;5.10;72.40;;;;;;5081114;28;19912;-84
2022/11/20 14:41:36;;;;;;;;;;;5.00;72.30;;;;;;5072892;28;19957;-84
2022/11/20 14:44:02;;;;;;;;;;;5.10;72.30;;;;;;5075564;28;19919;-83
2022/11/20 14:46:30;;;;;;;;;;;5.10;72.40;;;;;;5087937;28;19921;-85
2022/11/20 14:48:57;;;;;;;;;;;5.10;72.30;;;;;;5088294;28;20013;-81
2022/11/20 14:51:23;;;;;;;;;;;5.10;72.40;;;;;;5086616;28;19912;-80
2022/11/20 14:53:48;;;;;;;;;;;5.10;72.40;;;;;;5056753;28;19924;-82
2022/11/20 14:56:20;;;;;;;;;;;5.20;72.50;;;;;;5090832;28;20077;-82
2022/11/20 14:58:54;;;;;;;;;;;5.20;72.50;;;;;;5072311;28;20687;-81